Time;durP1;ratioP1;P1;durP2;ratioP2;P2;SDS_P1;SDS_P2;PMS_P1;PMS_P2;Temp;Humidity;BMP_temperature;BMP_pressure;BME280_temperature;BME280_humidity;BME280_pressure;Samples;Min_cycle;Max_cycle;Signal;HPM_P1;HPM_P2
2023/02/15 00:01:06;;;;;;;9.40;5.63;;;21.80;72.10;;;;;;5005839;28;20053;-69
2023/02/15 00:03:32;;;;;;;6.28;5.50;;;21.80;72.20;;;;;;5007841;28;20474;-69
2023/02/15 00:05:57;;;;;;;6.47;5.97;;;21.80;72.00;;;;;;5006857;28;20549;-70
2023/02/15 00:08:23;;;;;;;5.65;5.25;;;21.70;72.50;;;;;;5004877;28;20050;-70
2023/02/15 00:10:49;;;;;;;5.88;5.47;;;21.60;72.90;;;;;;5003078;28;20057;-69
2023/02/15 00:13:14;;;;;;;5.68;5.38;;;21.50;72.90;;;;;;5003470;28;20096;-69
2023/02/15 00:15:40;;;;;;;6.07;5.57;;;21.50;72.70;;;;;;5020019;28;20098;-69
2023/02/15 00:18:06;;;;;;;5.90;5.50;;;21.40;72.30;;;;;;5021876;28;20049;-70
2023/02/15 00:20:31;;;;;;;6.05;5.50;;;21.30;72.50;;;;;;5023856;28;20063;-69
2023/02/15 00:22:57;;;;;;;6.15;5.15;;;21.20;72.80;;;;;;5024925;28;20057;-69
2023/02/15 00:25:22;;;;;;;5.25;4.85;;;21.10;73.00;;;;;;5022532;28;20596;-70
2023/02/15 00:27:48;;;;;;;5.63;5.22;;;21.10;73.30;;;;;;5021980;28;20616;-69
2023/02/15 00:30:13;;;;;;;6.25;5.78;;;21.00;73.50;;;;;;5024108;28;20316;-70
2023/02/15 00:32:39;;;;;;;5.50;5.10;;;21.00;74.00;;;;;;5022097;28;20148;-69
2023/02/15 00:35:06;;;;;;;5.32;4.80;;;20.90;74.40;;;;;;5025020;28;20879;-70
2023/02/15 00:37:32;;;;;;;7.88;5.07;;;20.80;74.50;;;;;;5023828;28;20056;-69
2023/02/15 00:39:57;;;;;;;5.78;5.20;;;20.80;75.00;;;;;;5023532;28;20045;-69
2023/02/15 00:42:23;;;;;;;5.75;5.15;;;20.70;75.10;;;;;;5022695;28;20517;-70
2023/02/15 00:44:49;;;;;;;5.75;5.07;;;20.60;75.30;;;;;;5023423;28;20056;-69
2023/02/15 00:47:14;;;;;;;5.50;5.20;;;20.60;75.60;;;;;;5022651;28;20033;-69
2023/02/15 00:49:40;;;;;;;5.05;4.72;;;20.50;75.70;;;;;;5021629;28;20087;-69
2023/02/15 00:52:05;;;;;;;5.50;5.20;;;20.30;75.60;;;;;;5023454;28;21056;-70
2023/02/15 00:54:31;;;;;;;4.80;4.50;;;20.30;76.70;;;;;;5024474;28;20538;-69
2023/02/15 00:56:56;;;;;;;4.70;4.30;;;20.20;76.10;;;;;;5025217;28;20069;-69
2023/02/15 00:59:22;;;;;;;4.88;4.57;;;20.10;76.10;;;;;;5020472;28;20045;-69
2023/02/15 01:01:47;;;;;;;4.88;4.53;;;20.00;76.30;;;;;;5023979;28;20534;-69
2023/02/15 01:04:13;;;;;;;4.88;4.57;;;20.00;76.40;;;;;;5010061;28;20131;-69
2023/02/15 01:06:39;;;;;;;4.97;4.68;;;19.80;76.50;;;;;;5024429;28;20056;-69
2023/02/15 01:09:04;;;;;;;4.75;4.47;;;19.80;76.50;;;;;;5023660;28;20128;-69
2023/02/15 01:11:30;;;;;;;5.20;4.90;;;19.70;76.70;;;;;;5023767;28;20079;-68
2023/02/15 01:13:56;;;;;;;5.30;5.00;;;19.60;76.90;;;;;;5025711;28;20049;-69
2023/02/15 01:16:23;;;;;;;5.65;5.25;;;19.50;77.10;;;;;;5021054;28;20542;-69
2023/02/15 01:18:48;;;;;;;4.40;4.20;;;19.50;77.10;;;;;;5023452;28;20485;-69
2023/02/15 01:21:16;;;;;;;4.60;4.30;;;19.40;77.30;;;;;;5026647;28;20052;-69
2023/02/15 01:23:42;;;;;;;4.93;4.63;;;19.30;77.30;;;;;;5025927;28;20119;-69
2023/02/15 01:26:08;;;;;;;4.43;4.13;;;19.30;77.70;;;;;;5028046;28;20321;-69
2023/02/15 01:28:34;;;;;;;4.93;4.57;;;19.10;77.60;;;;;;5030047;28;20051;-69
2023/02/15 01:31:03;;;;;;;6.90;4.70;;;19.10;77.70;;;;;;5028344;28;20053;-69
2023/02/15 01:33:29;;;;;;;5.05;4.60;;;19.10;77.90;;;;;;5012807;28;21090;-69
2023/02/15 01:35:58;;;;;;;4.60;4.30;;;19.00;77.90;;;;;;5028415;28;20139;-68
2023/02/15 01:38:23;;;;;;;5.35;5.03;;;18.90;78.30;;;;;;5022352;28;20068;-68
2023/02/15 01:40:52;;;;;;;4.85;4.55;;;18.80;78.20;;;;;;5028354;28;20669;-69
2023/02/15 01:43:18;;;;;;;4.18;3.97;;;18.80;78.40;;;;;;5035566;28;20041;-69
2023/02/15 01:45:46;;;;;;;4.72;4.43;;;18.80;78.60;;;;;;5037050;28;20461;-69
2023/02/15 01:48:26;;;;;;;4.57;4.32;;;18.70;78.60;;;;;;5035057;28;20071;-70
2023/02/15 01:51:00;;;;;;;4.05;3.85;;;18.70;78.80;;;;;;5001841;28;20033;-69
2023/02/15 01:53:39;;;;;;;4.80;4.47;;;18.60;79.00;;;;;;5035419;28;20041;-69
2023/02/15 01:56:24;;;;;;;4.45;4.15;;;18.50;79.10;;;;;;5032885;28;20049;-70
2023/02/15 01:58:50;;;;;;;4.65;4.20;;;18.50;79.20;;;;;;5037836;28;20066;-69
2023/02/15 02:01:16;;;;;;;4.40;4.20;;;18.50;79.40;;;;;;5035057;28;20581;-69
2023/02/15 02:03:44;;;;;;;4.40;4.10;;;18.40;79.30;;;;;;5017161;28;20132;-69
2023/02/15 02:06:10;;;;;;;4.30;3.90;;;18.40;80.00;;;;;;5036733;28;21841;-69
2023/02/15 02:08:36;;;;;;;4.18;3.88;;;18.40;79.50;;;;;;5033476;28;20057;-75
2023/02/15 02:11:01;;;;;;;4.72;4.32;;;18.30;79.50;;;;;;5035914;28;20048;-75
2023/02/15 02:13:27;;;;;;;4.68;4.28;;;18.30;79.50;;;;;;5035841;28;20489;-75
2023/02/15 02:16:09;;;;;;;4.68;4.38;;;18.20;79.70;;;;;;5035238;28;20041;-75
2023/02/15 02:18:53;;;;;;;5.13;4.72;;;18.20;79.80;;;;;;5019185;28;20071;-75
2023/02/15 02:21:42;;;;;;;3.83;3.63;;;18.20;79.90;;;;;;5037041;28;20053;-75
2023/02/15 02:24:47;;;;;;;4.20;4.00;;;18.10;80.10;;;;;;5034739;28;20044;-75
2023/02/15 02:27:31;;;;;;;;;;;18.10;80.10;;;;;;5034427;28;20437;-75
2023/02/15 02:30:10;;;;;;;3.97;3.72;;;18.00;80.10;;;;;;5036808;28;20015;-75
2023/02/15 02:32:52;;;;;;;4.32;4.10;;;18.00;80.20;;;;;;5033281;28;20119;-75
2023/02/15 02:35:30;;;;;;;4.15;3.95;;;17.90;80.50;;;;;;5018108;28;20044;-75
2023/02/15 02:38:16;;;;;;;3.80;3.50;;;17.90;80.40;;;;;;5033358;28;20040;-75
2023/02/15 02:41:06;;;;;;;4.70;4.40;;;17.90;80.60;;;;;;5031934;28;20694;-75
2023/02/15 02:43:50;;;;;;;3.92;3.63;;;17.80;80.50;;;;;;5035552;28;20045;-75
2023/02/15 02:46:48;;;;;;;3.90;3.63;;;17.80;80.80;;;;;;5032095;28;20049;-75
2023/02/15 02:49:13;;;;;;;4.30;4.00;;;17.70;80.60;;;;;;4995622;28;20650;-75
2023/02/15 02:51:39;;;;;;;3.58;3.38;;;17.70;80.70;;;;;;5000698;28;20072;-75
2023/02/15 02:54:05;;;;;;;3.85;3.65;;;17.60;81.10;;;;;;4996404;28;20049;-75
2023/02/15 02:56:36;;;;;;;4.00;3.80;;;17.60;81.20;;;;;;4981763;28;20061;-75
2023/02/15 02:59:07;;;;;;;3.85;3.65;;;17.60;81.70;;;;;;4965877;28;20052;-75
2023/02/15 03:01:37;;;;;;;3.58;3.38;;;17.50;81.40;;;;;;4995756;28;20046;-75
2023/02/15 03:04:11;;;;;;;4.28;4.07;;;17.50;81.50;;;;;;4996878;28;20076;-75
2023/02/15 03:06:40;;;;;;;3.88;3.58;;;17.40;81.20;;;;;;4965647;28;20054;-76
2023/02/15 03:09:43;;;;;;;3.88;3.67;;;17.40;81.50;;;;;;4979812;28;20045;-75
2023/02/15 03:12:22;;;;;;;3.70;3.50;;;17.40;81.50;;;;;;4977681;28;20037;-75
2023/02/15 03:15:05;;;;;;;4.50;4.30;;;17.40;81.30;;;;;;4963822;28;20089;-75
2023/02/15 03:17:35;;;;;;;4.45;4.05;;;17.30;81.50;;;;;;4985076;28;20187;-76
2023/02/15 03:20:09;;;;;;;3.80;3.60;;;17.20;81.40;;;;;;4967509;28;20053;-75
2023/02/15 03:22:37;;;;;;;3.70;3.50;;;17.20;81.70;;;;;;4981930;28;20538;-75
2023/02/15 03:25:23;;;;;;;4.05;3.75;;;17.10;81.50;;;;;;4990332;28;20091;-75
2023/02/15 03:27:55;;;;;;;3.88;3.60;;;17.10;81.70;;;;;;5014954;28;20063;-75
2023/02/15 03:30:21;;;;;;;3.90;3.60;;;17.10;81.70;;;;;;4999920;28;20040;-75
2023/02/15 03:32:47;;;;;;;3.85;3.65;;;17.00;81.70;;;;;;5017189;28;20049;-75
2023/02/15 03:35:13;;;;;;;3.83;3.60;;;17.00;81.80;;;;;;5018625;28;20059;-75
2023/02/15 03:37:47;;;;;;;4.13;3.90;;;17.00;81.70;;;;;;4997810;28;20549;-75
2023/02/15 03:43:43;;;;;;;3.90;3.70;;;17.00;82.00;;;;;;5030991;28;20079;-75
2023/02/15 03:46:11;;;;;;;3.85;3.65;;;17.00;81.80;;;;;;5031349;28;20134;-75
2023/02/15 03:48:40;;;;;;;4.22;4.03;;;17.00;81.80;;;;;;5032346;28;21709;-75
2023/02/15 03:53:52;;;;;;;4.75;4.45;;;16.90;81.70;;;;;;5016995;28;20566;-75
2023/02/15 03:56:18;;;;;;;4.60;4.20;;;16.90;81.70;;;;;;5031787;28;20157;-75
2023/02/15 04:04:20;;;;;;;3.30;3.10;;;16.90;82.00;;;;;;5033478;28;20535;-75
2023/02/15 04:06:45;;;;;;;4.18;3.88;;;16.80;81.70;;;;;;5035035;28;20056;-75
2023/02/15 04:11:56;;;;;;;3.92;3.72;;;16.80;81.70;;;;;;5035913;28;20071;-75
2023/02/15 04:17:09;;;;;;;4.38;4.07;;;16.70;81.80;;;;;;5035025;28;20525;-75
2023/02/15 04:25:09;;;;;;;3.97;3.72;;;16.70;82.00;;;;;;5033102;28;20080;-75
2023/02/15 04:27:35;;;;;;;4.68;4.38;;;16.60;81.80;;;;;;5033662;28;20076;-75
2023/02/15 04:30:01;;;;;;;4.35;4.05;;;16.60;82.20;;;;;;5032808;28;20048;-76
2023/02/15 04:32:27;;;;;;;5.70;4.22;;;16.60;82.10;;;;;;5033754;28;20052;-75
2023/02/15 04:34:52;;;;;;;3.97;3.78;;;16.50;82.10;;;;;;5032917;28;20159;-75
2023/02/15 04:37:18;;;;;;;4.32;4.13;;;16.50;82.00;;;;;;5032280;28;20533;-75
2023/02/15 04:39:44;;;;;;;4.70;4.50;;;16.60;81.90;;;;;;5028761;28;20636;-75
2023/02/15 04:42:09;;;;;;;4.40;4.10;;;16.50;81.70;;;;;;5032675;28;20042;-75
2023/02/15 04:44:35;;;;;;;3.47;3.33;;;16.50;81.90;;;;;;5033421;28;20052;-75
2023/02/15 04:47:00;;;;;;;4.10;3.90;;;16.50;82.00;;;;;;5034444;28;20045;-75
2023/02/15 04:49:26;;;;;;;3.95;3.75;;;16.50;82.00;;;;;;5031937;28;20041;-75
2023/02/15 04:51:51;;;;;;;3.30;3.10;;;16.40;82.00;;;;;;5034104;28;20136;-75
2023/02/15 04:54:17;;;;;;;4.15;3.90;;;16.40;81.90;;;;;;5031952;28;20124;-75
2023/02/15 04:56:43;;;;;;;3.53;3.35;;;16.40;81.80;;;;;;5034372;28;20119;-75
2023/02/15 04:59:11;;;;;;;3.85;3.50;;;16.40;81.80;;;;;;5015536;28;20418;-75
2023/02/15 05:01:37;;;;;;;3.90;3.70;;;16.40;81.80;;;;;;5032730;28;20049;-75
2023/02/15 05:04:03;;;;;;;3.50;3.30;;;16.40;81.90;;;;;;5032578;28;20091;-75
2023/02/15 05:06:28;;;;;;;4.30;4.00;;;16.40;81.80;;;;;;5031982;28;20500;-75
2023/02/15 05:08:54;;;;;;;3.90;3.70;;;16.30;81.80;;;;;;5032774;28;20045;-75
2023/02/15 05:11:19;;;;;;;3.90;3.70;;;16.40;81.90;;;;;;5031512;28;20675;-75
2023/02/15 05:13:45;;;;;;;4.57;4.28;;;16.40;81.90;;;;;;5032535;28;20045;-75
2023/02/15 05:16:11;;;;;;;3.83;3.63;;;16.30;81.80;;;;;;5031585;28;20541;-75
2023/02/15 05:18:36;;;;;;;3.85;3.65;;;16.30;81.80;;;;;;5031872;28;20053;-75
2023/02/15 05:21:02;;;;;;;3.95;3.75;;;16.30;81.70;;;;;;5033357;28;20090;-75
2023/02/15 05:23:27;;;;;;;4.07;3.88;;;16.30;81.90;;;;;;5032130;28;20037;-75
2023/02/15 05:28:37;;;;;;;;;;;16.20;81.80;;;;;;5032371;28;20052;-75
2023/02/15 05:31:03;;;;;;;3.60;3.40;;;16.30;81.90;;;;;;5034201;28;19951;-75
2023/02/15 05:33:29;;;;;;;3.67;3.47;;;16.20;81.90;;;;;;5033529;28;20052;-75
2023/02/15 05:35:54;;;;;;;3.65;3.45;;;16.20;81.80;;;;;;5036275;28;20127;-75
2023/02/15 05:38:20;;;;;;;3.80;3.60;;;16.20;82.00;;;;;;5032522;28;20041;-75
2023/02/15 05:40:45;;;;;;;3.78;3.58;;;16.20;81.80;;;;;;5030567;28;20041;-75
2023/02/15 05:43:11;;;;;;;4.07;3.85;;;16.20;82.00;;;;;;5032698;28;20414;-75
2023/02/15 05:45:36;;;;;;;4.10;3.80;;;16.20;81.80;;;;;;5032064;28;20073;-75
2023/02/15 05:48:02;;;;;;;4.32;4.13;;;16.20;81.80;;;;;;5032535;28;20052;-75
2023/02/15 05:50:28;;;;;;;3.50;3.30;;;16.20;81.90;;;;;;5032274;28;20132;-75
2023/02/15 05:52:53;;;;;;;3.60;3.40;;;16.10;82.70;;;;;;5030501;28;20080;-75
2023/02/15 05:55:19;;;;;;;3.80;3.50;;;16.20;82.00;;;;;;5013618;28;20552;-74
2023/02/15 05:57:45;;;;;;;4.00;3.80;;;16.10;81.90;;;;;;5030985;28;20506;-75
2023/02/15 06:00:11;;;;;;;4.00;3.80;;;16.10;81.90;;;;;;5033188;28;20510;-75
2023/02/15 06:02:37;;;;;;;3.95;3.75;;;16.10;82.00;;;;;;4999540;28;20041;-75
2023/02/15 06:05:03;;;;;;;3.20;3.00;;;16.10;82.00;;;;;;5016818;28;20041;-75
2023/02/15 06:07:29;;;;;;;3.67;3.40;;;16.10;81.90;;;;;;5014312;28;20060;-75
2023/02/15 06:09:54;;;;;;;3.75;3.45;;;16.10;81.90;;;;;;5035944;28;20076;-75
2023/02/15 06:12:20;;;;;;;4.03;3.83;;;16.10;81.90;;;;;;5035513;28;20037;-75
2023/02/15 06:14:46;;;;;;;3.42;3.25;;;16.00;81.90;;;;;;5035986;28;20064;-75
2023/02/15 06:17:11;;;;;;;3.60;3.40;;;16.00;82.00;;;;;;5035919;28;20040;-76
2023/02/15 06:19:37;;;;;;;5.20;4.13;;;16.00;82.10;;;;;;5033513;28;20033;-77
2023/02/15 06:22:02;;;;;;;4.53;3.58;;;16.10;81.60;;;;;;5036190;28;20039;-74
2023/02/15 06:24:28;;;;;;;3.22;3.03;;;16.10;81.90;;;;;;5030989;28;20569;-74
2023/02/15 06:26:53;;;;;;;4.50;4.10;;;16.30;82.10;;;;;;5034628;28;20280;-76
2023/02/15 06:29:19;;;;;;;4.10;3.83;;;16.40;81.70;;;;;;5032476;28;20153;-72
2023/02/15 06:31:44;;;;;;;11.38;5.00;;;16.50;81.80;;;;;;5016852;28;20063;-77
2023/02/15 06:34:10;;;;;;;12.15;7.53;;;;;;;;;;5034289;28;20052;-79
2023/02/15 06:36:36;;;;;;;11.25;7.53;;;16.50;96.30;;;;;;5034667;28;20214;-76
2023/02/15 06:39:03;;;;;;;13.70;8.40;;;16.50;96.60;;;;;;5036651;28;20037;-76
2023/02/15 06:41:28;;;;;;;9.23;7.10;;;16.50;96.20;;;;;;5034130;28;20053;-76
2023/02/15 06:43:54;;;;;;;8.68;7.78;;;16.60;95.90;;;;;;5035048;28;20506;-77
2023/02/15 06:46:19;;;;;;;11.13;7.57;;;16.60;96.10;;;;;;5032471;28;20049;-74
2023/02/15 06:48:45;;;;;;;9.52;6.97;;;16.70;96.10;;;;;;5031464;28;20049;-77
2023/02/15 06:51:10;;;;;;;7.25;6.57;;;16.70;96.50;;;;;;5034999;28;20068;-76
2023/02/15 06:53:36;;;;;;;7.80;5.88;;;16.90;96.90;;;;;;5035275;28;20025;-75
2023/02/15 06:56:08;;;;;;;7.03;6.32;;;17.00;96.90;;;;;;5033734;28;20041;-77
2023/02/15 06:58:38;;;;;;;12.90;6.40;;;17.10;96.90;;;;;;5033258;28;20094;-77
2023/02/15 07:01:04;;;;;;;7.97;5.85;;;17.10;96.80;;;;;;5033862;28;20120;-78
2023/02/15 07:03:30;;;;;;;7.65;5.90;;;17.20;96.70;;;;;;5033254;28;20479;-78
2023/02/15 07:05:59;;;;;;;6.35;5.75;;;17.30;96.60;;;;;;5033140;28;20044;-78
2023/02/15 07:08:25;;;;;;;6.28;5.72;;;17.30;96.70;;;;;;5032331;28;20041;-76
2023/02/15 07:10:51;;;;;;;7.22;5.93;;;17.50;96.70;;;;;;5016453;28;20049;-77
2023/02/15 07:13:17;;;;;;;10.45;6.43;;;17.60;96.40;;;;;;5031292;28;20909;-77
2023/02/15 07:15:43;;;;;;;6.22;5.72;;;17.70;96.30;;;;;;5031997;28;20045;-77
2023/02/15 07:18:10;;;;;;;6.50;5.63;;;17.90;96.10;;;;;;5014897;28;20037;-76
2023/02/15 07:20:36;;;;;;;6.70;5.60;;;18.00;95.80;;;;;;5017325;28;20069;-80
2023/02/15 07:23:01;;;;;;;8.20;5.45;;;18.10;95.60;;;;;;5031264;28;20116;-78
2023/02/15 07:25:27;;;;;;;7.68;6.15;;;18.20;95.50;;;;;;5048766;28;20151;-77
2023/02/15 07:28:11;;;;;;;5.88;5.40;;;18.30;95.20;;;;;;5031991;28;20048;-78
2023/02/15 07:30:36;;;;;;;6.55;5.45;;;18.30;95.20;;;;;;5031122;28;20467;-77
2023/02/15 07:35:47;;;;;;;5.25;4.82;;;18.40;95.00;;;;;;5034057;28;20059;-77
2023/02/15 07:38:13;;;;;;;5.63;5.18;;;18.40;95.00;;;;;;5016668;28;20037;-77
2023/02/15 07:40:38;;;;;;;5.15;4.80;;;18.60;94.90;;;;;;5035455;28;20051;-78
2023/02/15 07:43:04;;;;;;;6.13;5.43;;;18.50;94.70;;;;;;5034737;28;20128;-77
2023/02/15 07:45:30;;;;;;;5.70;5.15;;;18.60;94.50;;;;;;5030472;28;20467;-77
2023/02/15 07:47:55;;;;;;;5.93;5.45;;;18.60;94.40;;;;;;5023032;28;20412;-77
2023/02/15 07:50:21;;;;;;;5.40;5.10;;;18.50;94.30;;;;;;5034276;28;20141;-78
2023/02/15 07:52:46;;;;;;;5.85;5.25;;;18.50;94.30;;;;;;5016960;28;20097;-77
2023/02/15 07:55:12;;;;;;;6.00;5.50;;;18.40;94.30;;;;;;5032090;28;20437;-77
2023/02/15 07:57:43;;;;;;;5.25;4.82;;;18.40;94.30;;;;;;5033352;28;20029;-78
2023/02/15 08:00:09;;;;;;;5.35;4.95;;;18.40;94.30;;;;;;5016381;28;20052;-77
2023/02/15 08:02:36;;;;;;;5.72;5.30;;;18.40;94.20;;;;;;5030843;28;20083;-78
2023/02/15 08:05:02;;;;;;;7.40;5.03;;;18.30;94.00;;;;;;5031980;28;20711;-74
2023/02/15 08:07:28;;;;;;;5.75;5.00;;;18.40;94.20;;;;;;5031384;28;20064;-75
2023/02/15 08:09:53;;;;;;;7.60;5.15;;;18.50;94.70;;;;;;5032102;28;20124;-69
2023/02/15 08:12:19;;;;;;;5.18;4.78;;;18.50;94.50;;;;;;5032423;28;20141;-69
2023/02/15 08:14:45;;;;;;;5.35;4.90;;;18.50;94.40;;;;;;5014444;28;20163;-70
2023/02/15 08:17:10;;;;;;;7.07;4.72;;;18.40;94.60;;;;;;5032494;28;20041;-69
2023/02/15 08:19:36;;;;;;;5.20;4.70;;;18.40;95.00;;;;;;5031250;28;20045;-69
2023/02/15 08:22:06;;;;;;;7.55;5.03;;;18.40;95.50;;;;;;5035152;28;20665;-69
2023/02/15 08:24:33;;;;;;;5.32;4.93;;;18.30;95.50;;;;;;5032649;28;20052;-69
2023/02/15 08:26:59;;;;;;;5.38;4.93;;;18.30;95.40;;;;;;5035526;28;20044;-69
2023/02/15 08:29:27;;;;;;;5.50;5.00;;;18.20;95.50;;;;;;5031132;28;20045;-69
2023/02/15 08:31:53;;;;;;;5.88;5.22;;;18.20;95.50;;;;;;5031873;28;20064;-69
2023/02/15 08:34:19;;;;;;;11.88;5.50;;;18.20;95.50;;;;;;5015793;28;20062;-69
2023/02/15 08:36:45;;;;;;;5.00;4.60;;;18.20;95.50;;;;;;5028440;28;20457;-69
2023/02/15 08:39:11;;;;;;;4.97;4.53;;;18.10;95.40;;;;;;5032026;28;20499;-69
2023/02/15 08:41:37;;;;;;;5.03;4.30;;;18.10;95.40;;;;;;5034067;28;20051;-69
2023/02/15 08:44:05;;;;;;;5.13;4.45;;;18.10;95.30;;;;;;5032898;28;20533;-69
2023/02/15 08:46:32;;;;;;;4.90;4.55;;;18.20;95.30;;;;;;5032799;28;20425;-70
2023/02/15 08:48:58;;;;;;;4.95;4.50;;;18.10;95.30;;;;;;5047795;28;20084;-69
2023/02/15 08:51:32;;;;;;;5.82;4.40;;;18.10;95.30;;;;;;5032768;28;20847;-69
2023/02/15 08:53:59;;;;;;;5.05;4.65;;;18.10;95.30;;;;;;5031769;28;20079;-69
2023/02/15 08:56:29;;;;;;;5.13;4.72;;;18.10;95.60;;;;;;5032860;28;20045;-69
2023/02/15 08:58:55;;;;;;;4.65;4.32;;;18.00;95.30;;;;;;5032095;28;20655;-69
2023/02/15 09:01:23;;;;;;;4.68;4.28;;;18.00;95.20;;;;;;5033304;28;20033;-69
2023/02/15 09:03:56;;;;;;;4.45;4.15;;;18.00;95.20;;;;;;5032360;28;20107;-69
2023/02/15 09:06:22;;;;;;;4.35;4.05;;;18.00;95.40;;;;;;5032801;28;20052;-69
2023/02/15 09:08:49;;;;;;;4.93;4.45;;;17.90;95.30;;;;;;5032239;28;20049;-70
2023/02/15 09:11:25;;;;;;;4.90;4.10;;;17.90;95.30;;;;;;5047940;28;20897;-69
2023/02/15 09:13:53;;;;;;;4.70;4.38;;;17.90;95.20;;;;;;5032446;28;20041;-69
2023/02/15 09:16:19;;;;;;;4.68;4.47;;;17.90;95.20;;;;;;5033291;28;20060;-69
2023/02/15 09:18:45;;;;;;;4.45;4.10;;;17.90;95.20;;;;;;5030806;28;20142;-70
2023/02/15 09:21:15;;;;;;;4.90;4.50;;;17.90;95.20;;;;;;5033223;28;20036;-70
2023/02/15 09:23:42;;;;;;;5.40;4.53;;;17.90;95.20;;;;;;5033829;28;20072;-70
2023/02/15 09:26:10;;;;;;;4.10;3.80;;;17.90;95.20;;;;;;5030852;28;20107;-70
2023/02/15 09:28:35;;;;;;;4.63;4.22;;;17.80;95.20;;;;;;5029507;28;20132;-70
2023/02/15 09:31:20;;;;;;;4.90;4.20;;;17.80;95.00;;;;;;5032074;28;20042;-70
2023/02/15 09:33:46;;;;;;;4.18;3.83;;;17.80;95.00;;;;;;5030860;28;20042;-70
2023/02/15 09:36:28;;;;;;;3.83;3.53;;;17.80;94.80;;;;;;5032377;28;20037;-70
2023/02/15 09:39:07;;;;;;;4.63;3.70;;;17.80;94.80;;;;;;5013935;28;20029;-70
2023/02/15 09:42:11;;;;;;;3.65;3.45;;;17.80;94.80;;;;;;5017160;28;20053;-70
2023/02/15 09:44:59;;;;;;;3.53;3.33;;;17.90;94.60;;;;;;5023647;28;20052;-70
2023/02/15 09:47:31;;;;;;;4.22;3.78;;;17.90;94.50;;;;;;5018698;28;20075;-69
2023/02/15 09:49:59;;;;;;;4.07;3.78;;;17.90;94.50;;;;;;5035403;28;20053;-70
2023/02/15 09:53:02;;;;;;;3.85;3.65;;;17.90;94.40;;;;;;5035455;28;20040;-69
2023/02/15 09:55:31;;;;;;;4.10;3.80;;;17.90;94.50;;;;;;5035651;28;20041;-70
2023/02/15 09:58:15;;;;;;;3.95;3.65;;;17.90;94.40;;;;;;5036403;28;20049;-69
2023/02/15 10:01:00;;;;;;;4.18;3.85;;;18.00;94.50;;;;;;5034095;28;20037;-70
2023/02/15 10:03:34;;;;;;;;;;;17.90;94.40;;;;;;5038247;28;20044;-70
2023/02/15 10:06:11;;;;;;;4.13;3.83;;;17.90;94.50;;;;;;5027680;28;19935;-70
2023/02/15 10:09:00;;;;;;;3.72;3.53;;;17.90;94.50;;;;;;5034208;28;20534;-70
2023/02/15 10:11:41;;;;;;;3.53;3.25;;;17.90;94.50;;;;;;5027529;28;20048;-69
2023/02/15 10:14:10;;;;;;;3.92;3.65;;;17.90;94.50;;;;;;5007435;28;20410;-70
2023/02/15 10:16:39;;;;;;;3.90;3.60;;;18.00;94.50;;;;;;5014037;28;20045;-70
2023/02/15 10:19:27;;;;;;;3.65;3.45;;;18.00;94.50;;;;;;5010259;28;20419;-70
2023/02/15 10:22:05;;;;;;;3.75;3.55;;;18.00;94.50;;;;;;5049916;28;20041;-70
2023/02/15 10:24:49;;;;;;;3.13;2.92;;;17.90;94.50;;;;;;5050758;28;20048;-70
2023/02/15 10:27:19;;;;;;;2.67;2.58;;;18.00;94.60;;;;;;5051576;28;20051;-70
2023/02/15 10:30:09;;;;;;;3.30;3.10;;;17.90;94.50;;;;;;5025536;28;20037;-70
2023/02/15 10:32:47;;;;;;;2.70;2.60;;;17.90;94.50;;;;;;5008646;28;20055;-70
2023/02/15 10:35:34;;;;;;;3.30;3.10;;;17.90;94.50;;;;;;4981844;28;20068;-70
2023/02/15 10:38:15;;;;;;;3.20;3.00;;;18.00;94.50;;;;;;4994277;28;20595;-70
2023/02/15 10:40:59;;;;;;;3.33;3.13;;;17.90;94.40;;;;;;4985719;28;20107;-70
2023/02/15 10:43:43;;;;;;;3.15;2.95;;;17.90;94.40;;;;;;5006658;28;20045;-70
2023/02/15 10:46:15;;;;;;;3.10;2.90;;;17.90;94.40;;;;;;5006913;28;20536;-70
2023/02/15 10:48:53;;;;;;;3.35;3.15;;;17.90;94.50;;;;;;5008890;28;20050;-70
2023/02/15 10:51:31;;;;;;;3.33;3.13;;;18.00;94.40;;;;;;5012592;28;20152;-70
2023/02/15 10:54:06;;;;;;;3.20;3.00;;;17.90;94.40;;;;;;4995914;28;20073;-69
2023/02/15 10:56:47;;;;;;;;;;;17.90;94.90;;;;;;4996277;28;20105;-70
2023/02/15 10:59:33;;;;;;;3.30;3.10;;;17.90;94.40;;;;;;4641159;28;10000092;-70
2023/02/15 11:02:10;;;;;;;3.35;3.15;;;17.90;94.40;;;;;;5007619;28;20053;-70
2023/02/15 11:04:45;;;;;;;3.35;3.15;;;17.90;94.50;;;;;;4986552;28;20623;-78
2023/02/15 11:07:40;;;;;;;3.33;3.13;;;18.00;94.50;;;;;;4987562;28;20093;-79
2023/02/15 11:10:24;;;;;;;3.78;3.58;;;18.00;94.60;;;;;;5005317;28;20044;-77
2023/02/15 11:12:50;;;;;;;3.90;3.70;;;18.00;94.50;;;;;;5034342;28;20936;-77
2023/02/15 11:15:24;;;;;;;3.10;2.90;;;18.00;94.50;;;;;;5019522;28;20064;-78
2023/02/15 11:17:55;;;;;;;3.10;2.85;;;18.00;94.40;;;;;;5037392;28;20063;-77
2023/02/15 11:20:39;;;;;;;2.83;2.70;;;18.00;94.50;;;;;;5019388;28;20175;-77
2023/02/15 11:23:18;;;;;;;3.33;2.92;;;18.00;94.40;;;;;;5016070;28;20060;-76
2023/02/15 11:25:46;;;;;;;3.03;2.83;;;18.00;94.50;;;;;;5031009;28;20067;-77
2023/02/15 11:28:21;;;;;;;3.13;2.92;;;18.00;94.50;;;;;;5020339;28;20511;-76
2023/02/15 11:30:51;;;;;;;2.85;2.65;;;18.00;94.50;;;;;;5011265;28;20103;-77
2023/02/15 11:33:38;;;;;;;2.95;2.83;;;18.00;94.50;;;;;;4998613;28;20056;-77
2023/02/15 11:36:17;;;;;;;2.90;2.70;;;18.10;94.50;;;;;;5002823;28;20050;-77
2023/02/15 11:38:43;;;;;;;3.20;3.00;;;18.00;94.40;;;;;;5003911;28;20048;-77
2023/02/15 11:41:10;;;;;;;2.90;2.70;;;18.00;94.50;;;;;;5029581;28;20037;-77
2023/02/15 11:44:12;;;;;;;3.22;3.05;;;18.00;94.50;;;;;;5026868;28;20095;-77
2023/02/15 11:46:37;;;;;;;3.42;3.22;;;18.00;94.60;;;;;;5033961;28;20135;-76
2023/02/15 11:49:10;;;;;;;3.15;2.92;;;18.00;94.60;;;;;;5034093;28;20579;-76
2023/02/15 11:51:35;;;;;;;2.58;2.47;;;18.00;94.60;;;;;;5017813;28;20185;-76
2023/02/15 11:54:01;;;;;;;3.00;2.90;;;18.00;94.60;;;;;;5036936;28;20187;-77
2023/02/15 11:56:27;;;;;;;2.72;2.63;;;18.00;94.60;;;;;;5019882;28;20088;-76
2023/02/15 11:58:57;;;;;;;2.72;2.58;;;18.00;94.60;;;;;;5018786;28;20254;-76
2023/02/15 12:01:36;;;;;;;2.83;2.72;;;18.00;94.60;;;;;;5036948;28;20045;-77
2023/02/15 12:04:21;;;;;;;2.92;2.53;;;18.00;94.60;;;;;;5035976;28;20037;-76
2023/02/15 12:07:15;;;;;;;3.47;3.28;;;17.90;94.60;;;;;;5018972;28;20068;-76
2023/02/15 12:10:06;;;;;;;3.58;3.38;;;18.00;94.70;;;;;;4991565;28;20076;-76
2023/02/15 12:12:33;;;;;;;2.80;2.60;;;18.00;94.70;;;;;;5037292;28;20060;-76
2023/02/15 12:15:00;;;;;;;2.60;2.50;;;17.90;94.60;;;;;;5038436;28;20045;-76
2023/02/15 12:17:27;;;;;;;2.45;2.35;;;17.90;94.60;;;;;;5012200;28;20037;-77
2023/02/15 12:19:56;;;;;;;3.35;3.10;;;17.90;94.70;;;;;;5034870;28;20029;-76
2023/02/15 12:22:23;;;;;;;3.42;2.65;;;17.90;95.00;;;;;;5034861;28;20040;-76
2023/02/15 12:24:49;;;;;;;3.03;2.90;;;17.90;95.00;;;;;;5034670;28;20052;-76
2023/02/15 12:27:34;;;;;;;2.35;2.25;;;17.90;94.70;;;;;;5032903;28;20052;-76
2023/02/15 12:30:02;;;;;;;2.30;2.20;;;17.80;94.70;;;;;;5033843;28;20033;-76
2023/02/15 12:32:35;;;;;;;2.45;2.35;;;17.80;94.70;;;;;;5015528;28;20051;-76
2023/02/15 12:35:09;;;;;;;2.50;2.40;;;17.80;94.70;;;;;;5034185;28;20517;-76
2023/02/15 12:37:35;;;;;;;2.25;2.15;;;17.80;94.80;;;;;;5014797;28;20056;-76
2023/02/15 12:40:18;;;;;;;2.53;2.42;;;17.80;95.20;;;;;;5014333;28;20100;-77
2023/02/15 12:42:44;;;;;;;2.65;2.45;;;17.80;94.80;;;;;;5031030;28;20045;-76
2023/02/15 12:45:29;;;;;;;2.40;2.30;;;17.80;94.80;;;;;;5034256;28;20954;-76
2023/02/15 12:48:10;;;;;;;2.97;2.88;;;17.80;94.80;;;;;;5035666;28;20532;-77
2023/02/15 12:50:36;;;;;;;3.08;2.88;;;17.70;94.90;;;;;;5035422;28;20055;-77
2023/02/15 12:53:19;;;;;;;2.58;2.47;;;17.70;94.90;;;;;;5036468;28;20053;-77
2023/02/15 12:55:58;;;;;;;2.90;2.80;;;17.80;95.10;;;;;;5032926;28;20033;-76
2023/02/15 12:58:27;;;;;;;2.83;2.28;;;17.70;95.30;;;;;;5033215;28;20034;-76
2023/02/15 13:01:14;;;;;;;2.58;2.47;;;17.70;95.30;;;;;;5034295;28;20574;-77
2023/02/15 13:03:54;;;;;;;2.90;2.70;;;17.80;95.80;;;;;;5032820;28;20037;-76
2023/02/15 13:06:20;;;;;;;2.85;2.67;;;17.80;95.50;;;;;;5021955;28;20152;-77
2023/02/15 13:08:50;;;;;;;2.78;2.42;;;17.70;95.50;;;;;;5030973;28;20045;-76
2023/02/15 13:11:33;;;;;;;3.05;2.85;;;17.80;95.60;;;;;;5014653;28;20065;-76
2023/02/15 13:14:01;;;;;;;2.90;2.70;;;17.70;95.40;;;;;;5018662;28;20125;-76
2023/02/15 13:16:31;;;;;;;3.00;2.40;;;17.70;95.40;;;;;;5038128;28;20120;-74
2023/02/15 13:18:56;;;;;;;2.45;2.35;;;17.70;95.60;;;;;;5019686;28;20063;-74
2023/02/15 13:21:24;;;;;;;2.42;2.33;;;17.70;95.70;;;;;;5039978;28;20143;-74
2023/02/15 13:24:19;;;;;;;2.55;2.35;;;17.70;95.40;;;;;;5045887;28;20049;-76
2023/02/15 13:26:46;;;;;;;2.78;2.58;;;17.70;95.40;;;;;;5023363;28;20048;-74
2023/02/15 13:29:21;;;;;;;2.63;2.53;;;17.70;95.60;;;;;;5038243;28;20040;-75
2023/02/15 13:31:47;;;;;;;2.58;2.47;;;17.70;95.60;;;;;;5029969;28;20087;-75
2023/02/15 13:34:18;;;;;;;2.00;1.90;;;17.70;95.40;;;;;;4996750;28;20867;-75